Time;durP1;ratioP1;P1;durP2;ratioP2;P2;SDS_P1;SDS_P2;PMS_P1;PMS_P2;Temp;Humidity;BMP_temperature;BMP_pressure;BME280_temperature;BME280_humidity;BME280_pressure;Samples;Min_cycle;Max_cycle;Signal;HPM_P1;HPM_P2
2022/01/26 00:07:37;;;;;;;84.30;32.10;;;3.50;99.90;;;;;;5047537;28;20496;-63
2022/01/26 00:10:03;;;;;;;82.72;33.47;;;3.50;99.90;;;;;;5046796;28;20406;-63
2022/01/26 00:12:29;;;;;;;96.68;35.33;;;3.40;99.90;;;;;;5048353;28;20055;-63
2022/01/26 00:14:55;;;;;;;88.93;34.08;;;3.40;99.90;;;;;;5045733;28;20057;-63
2022/01/26 00:17:20;;;;;;;90.68;33.38;;;3.40;99.90;;;;;;5045469;28;20056;-63
2022/01/26 00:22:34;;;;;;;87.25;32.88;;;3.40;99.90;;;;;;5046297;28;20494;-63
2022/01/26 00:25:42;;;;;;;86.20;31.70;;;3.40;99.90;;;;;;5017732;28;20048;-63
2022/01/26 00:28:06;;;;;;;92.90;34.30;;;3.40;99.90;;;;;;5043691;28;20114;-63
2022/01/26 00:38:41;;;;;;;82.68;32.10;;;3.40;99.90;;;;;;5043989;28;20564;-63
2022/01/26 00:41:13;;;;;;;85.60;32.70;;;3.30;99.90;;;;;;5046135;28;20043;-63
2022/01/26 00:43:48;;;;;;;87.68;33.15;;;3.30;99.90;;;;;;5026562;28;20103;-63
2022/01/26 00:46:16;;;;;;;92.60;34.95;;;3.30;99.90;;;;;;5042653;28;20506;-63
2022/01/26 00:48:43;;;;;;;88.65;33.40;;;3.30;99.90;;;;;;5041617;28;20075;-63
2022/01/26 00:51:09;;;;;;;87.47;34.63;;;3.30;99.90;;;;;;5046041;28;20055;-63
2022/01/26 00:53:40;;;;;;;92.90;33.85;;;3.30;99.90;;;;;;5028263;28;20116;-63
2022/01/26 00:56:06;;;;;;;87.15;33.13;;;3.30;99.90;;;;;;5045342;28;20037;-63
2022/01/26 00:58:34;;;;;;;87.10;34.08;;;3.30;99.90;;;;;;5024635;28;20045;-63
2022/01/26 01:01:02;;;;;;;82.57;32.33;;;3.30;99.90;;;;;;5020880;28;20044;-63
2022/01/26 01:03:30;;;;;;;83.90;32.05;;;3.30;99.90;;;;;;5045230;28;20552;-63
2022/01/26 01:08:25;;;;;;;80.57;31.73;;;3.30;99.90;;;;;;5044672;28;20076;-63
2022/01/26 01:10:52;;;;;;;94.47;34.28;;;3.30;99.90;;;;;;5044790;28;20403;-63
2022/01/26 01:13:20;;;;;;;80.47;33.00;;;3.30;99.90;;;;;;5038988;28;20111;-63
2022/01/26 01:15:48;;;;;;;86.72;31.88;;;3.30;99.90;;;;;;5031937;28;20491;-63
2022/01/26 01:18:23;;;;;;;90.80;33.80;;;3.30;99.90;;;;;;5015906;28;20294;-63
2022/01/26 01:31:26;;;;;;;85.60;32.03;;;3.20;99.90;;;;;;5039715;28;20037;-63
2022/01/26 01:33:52;;;;;;;73.80;28.85;;;3.30;99.90;;;;;;5031604;28;20053;-63
2022/01/26 01:36:21;;;;;;;83.20;32.00;;;3.20;99.90;;;;;;5011241;28;20052;-63
2022/01/26 01:38:46;;;;;;;89.38;34.47;;;3.30;99.90;;;;;;5047107;28;20073;-63
2022/01/26 01:41:12;;;;;;;82.53;31.10;;;3.30;99.90;;;;;;5041020;28;20207;-63
2022/01/26 01:43:38;;;;;;;85.60;32.60;;;3.30;99.90;;;;;;5034574;28;20037;-63
2022/01/26 01:46:04;;;;;;;91.70;34.13;;;3.30;99.90;;;;;;5028441;28;20495;-63
2022/01/26 01:48:32;;;;;;;85.05;31.92;;;3.20;99.90;;;;;;5045753;28;20055;-63
2022/01/26 01:51:01;;;;;;;75.15;31.13;;;3.20;99.90;;;;;;5047007;28;20053;-63
2022/01/26 01:53:38;;;;;;;83.22;32.55;;;3.30;99.90;;;;;;5045764;28;20037;-63
2022/01/26 01:56:07;;;;;;;95.20;35.25;;;3.20;99.90;;;;;;5044840;28;20063;-63
2022/01/26 01:58:33;;;;;;;80.03;28.88;;;3.20;99.90;;;;;;5047011;28;20191;-63
2022/01/26 02:00:59;;;;;;;81.55;31.98;;;3.20;99.90;;;;;;5040721;28;20033;-63
2022/01/26 02:03:25;;;;;;;78.18;29.10;;;3.20;99.90;;;;;;5046428;28;20057;-63
2022/01/26 02:05:51;;;;;;;93.68;32.58;;;3.20;99.90;;;;;;5027171;28;20037;-63
2022/01/26 02:08:17;;;;;;;93.35;34.65;;;3.20;99.90;;;;;;5041254;28;20045;-63
2022/01/26 02:10:43;;;;;;;50.97;21.02;;;3.20;99.90;;;;;;5040509;28;20052;-63
2022/01/26 02:13:23;;;;;;;95.82;33.55;;;3.20;99.90;;;;;;5026552;28;20057;-63
2022/01/26 02:16:11;;;;;;;85.00;32.15;;;3.20;99.90;;;;;;5042531;28;20053;-63
2022/01/26 02:56:12;;;;;;;76.63;29.10;;;3.10;99.90;;;;;;5027816;28;20545;-63
2022/01/26 02:59:04;;;;;;;87.85;34.42;;;3.10;99.90;;;;;;5032380;28;20045;-63
2022/01/26 03:09:27;;;;;;;89.43;32.33;;;3.10;99.90;;;;;;5038321;28;20065;-62
2022/01/26 03:11:53;;;;;;;93.10;32.97;;;3.10;99.90;;;;;;5015495;28;20519;-63
2022/01/26 03:17:32;;;;;;;81.03;27.80;;;3.10;99.90;;;;;;5036060;28;20411;-63
2022/01/26 03:20:04;;;;;;;85.10;32.33;;;3.10;99.90;;;;;;5033700;28;20042;-63
2022/01/26 03:35:51;;;;;;;91.65;34.80;;;3.10;99.90;;;;;;5049036;28;20045;-63
2022/01/26 03:38:27;;;;;;;76.60;24.75;;;3.10;99.90;;;;;;5048638;28;20051;-63
2022/01/26 03:41:11;;;;;;;95.75;35.15;;;3.10;99.90;;;;;;5039210;28;20052;-63
2022/01/26 03:43:37;;;;;;;90.28;32.20;;;3.10;99.90;;;;;;5039593;28;20049;-63
2022/01/26 03:46:03;;;;;;;77.90;27.13;;;3.10;99.90;;;;;;5048585;28;20052;-62
2022/01/26 03:48:29;;;;;;;94.22;35.08;;;3.10;99.90;;;;;;5047939;28;20159;-63
2022/01/26 03:50:54;;;;;;;91.65;32.58;;;3.10;99.90;;;;;;5024622;28;20075;-63
2022/01/26 03:53:20;;;;;;;104.05;37.95;;;3.10;99.90;;;;;;5047430;28;20494;-63
2022/01/26 03:55:46;;;;;;;98.50;38.20;;;3.10;99.90;;;;;;5049569;28;20895;-63
2022/01/26 03:58:12;;;;;;;91.03;33.60;;;3.10;99.90;;;;;;5029266;28;20502;-63
2022/01/26 04:00:38;;;;;;;100.05;36.83;;;3.10;99.90;;;;;;5030584;28;20060;-63
2022/01/26 04:03:04;;;;;;;108.07;38.78;;;3.10;99.90;;;;;;5046999;28;20049;-63
2022/01/26 04:05:30;;;;;;;98.90;35.97;;;3.10;99.90;;;;;;5029598;28;20095;-63
2022/01/26 04:08:03;;;;;;;104.53;38.95;;;3.10;99.90;;;;;;5037778;28;20047;-63
2022/01/26 04:11:03;;;;;;;102.25;37.67;;;3.10;99.90;;;;;;5021358;28;20471;-63
2022/01/26 04:13:15;;;;;;;103.82;38.33;;;3.10;99.90;;;;;;5036825;28;20103;-63
2022/01/26 04:15:40;;;;;;;95.07;34.65;;;3.10;99.90;;;;;;5046487;28;20064;-63
2022/01/26 04:18:12;;;;;;;92.15;32.50;;;3.10;99.90;;;;;;5049007;28;20119;-63
2022/01/26 04:20:42;;;;;;;94.68;34.80;;;3.10;99.90;;;;;;5028481;28;20056;-63
2022/01/26 04:23:21;;;;;;;111.63;39.15;;;3.00;99.90;;;;;;5017023;28;20049;-62
2022/01/26 04:25:49;;;;;;;90.32;32.85;;;3.00;99.90;;;;;;5032983;28;20434;-63
2022/01/26 04:28:34;;;;;;;98.53;36.58;;;3.00;99.90;;;;;;4999053;28;20045;-63
2022/01/26 04:31:00;;;;;;;106.22;35.53;;;3.00;99.90;;;;;;5047765;28;20040;-63
2022/01/26 04:33:26;;;;;;;98.00;35.78;;;3.00;99.90;;;;;;5039347;28;20384;-63
2022/01/26 04:35:52;;;;;;;96.30;32.10;;;3.00;99.90;;;;;;5041591;28;20044;-63
2022/01/26 04:38:31;;;;;;;96.20;35.13;;;3.00;99.90;;;;;;5034616;28;20545;-62
2022/01/26 04:43:27;;;;;;;88.00;33.60;;;3.00;99.90;;;;;;5047522;28;20053;-63
2022/01/26 04:45:53;;;;;;;90.60;31.83;;;3.00;99.90;;;;;;5046068;28;20045;-63
2022/01/26 04:48:19;;;;;;;85.88;34.03;;;3.00;99.90;;;;;;5046911;28;20036;-63
2022/01/26 04:50:45;;;;;;;101.15;34.58;;;3.00;99.90;;;;;;5047066;28;20048;-63
2022/01/26 04:53:11;;;;;;;92.20;33.83;;;3.00;99.90;;;;;;5043721;28;20035;-63
2022/01/26 04:55:37;;;;;;;75.60;27.35;;;3.00;99.90;;;;;;5032031;28;20497;-63
2022/01/26 04:58:03;;;;;;;82.65;31.80;;;2.90;99.90;;;;;;5016200;28;20037;-63
2022/01/26 05:00:29;;;;;;;93.88;35.88;;;2.90;99.90;;;;;;5013474;28;20510;-63
2022/01/26 05:02:54;;;;;;;86.78;32.72;;;3.00;99.90;;;;;;5035444;28;20065;-63
2022/01/26 05:05:20;;;;;;;90.28;34.33;;;2.90;99.90;;;;;;5029465;28;20406;-63
2022/01/26 05:07:46;;;;;;;91.10;31.98;;;2.90;99.90;;;;;;5036388;28;20045;-63
2022/01/26 05:10:12;;;;;;;87.20;33.75;;;2.90;99.90;;;;;;5043238;28;20041;-63
2022/01/26 05:12:39;;;;;;;83.65;28.95;;;2.90;99.90;;;;;;5027609;28;20045;-63
2022/01/26 05:15:05;;;;;;;83.18;32.47;;;2.90;99.90;;;;;;5036828;28;20453;-63
2022/01/26 05:17:31;;;;;;;82.80;32.45;;;2.90;99.90;;;;;;5047086;28;20128;-63
2022/01/26 05:19:59;;;;;;;83.53;32.03;;;2.90;99.90;;;;;;5046134;28;20037;-63
2022/01/26 05:22:25;;;;;;;91.65;32.83;;;2.90;99.90;;;;;;5047147;28;20398;-63
2022/01/26 05:24:52;;;;;;;90.35;32.22;;;2.90;99.90;;;;;;5037678;28;20501;-63
2022/01/26 05:27:19;;;;;;;84.47;33.70;;;2.90;99.90;;;;;;5046973;28;20036;-63
2022/01/26 05:29:45;;;;;;;75.47;27.15;;;2.90;99.90;;;;;;5046789;28;20051;-63
2022/01/26 05:32:11;;;;;;;90.03;34.83;;;2.90;99.90;;;;;;5046309;28;20037;-63
2022/01/26 05:34:37;;;;;;;73.32;28.75;;;2.90;99.90;;;;;;5045927;28;20041;-63
2022/01/26 05:37:03;;;;;;;79.82;31.42;;;2.90;99.90;;;;;;5046076;28;20095;-63
2022/01/26 05:39:28;;;;;;;82.50;31.80;;;2.80;99.90;;;;;;5046225;28;20133;-63
2022/01/26 05:41:54;;;;;;;82.78;30.15;;;2.80;99.90;;;;;;5045959;28;20108;-63
2022/01/26 05:44:20;;;;;;;81.25;29.63;;;2.90;99.90;;;;;;5044606;28;20076;-63
2022/01/26 05:46:49;;;;;;;83.75;30.80;;;2.80;99.90;;;;;;5044663;28;20327;-63
2022/01/26 05:49:17;;;;;;;79.07;30.27;;;2.80;99.90;;;;;;5046541;28;20059;-63
2022/01/26 05:51:45;;;;;;;78.70;29.90;;;2.80;99.90;;;;;;5046494;28;20040;-63
2022/01/26 05:54:12;;;;;;;68.07;25.52;;;2.80;99.90;;;;;;5045755;28;20049;-63
2022/01/26 05:56:38;;;;;;;88.00;32.92;;;2.80;99.90;;;;;;5026964;28;20123;-63
2022/01/26 05:59:04;;;;;;;79.30;29.92;;;2.80;99.90;;;;;;5045623;28;20037;-63
2022/01/26 06:01:30;;;;;;;63.60;23.73;;;2.80;99.90;;;;;;5020967;28;20048;-63
2022/01/26 06:03:56;;;;;;;75.22;31.33;;;2.80;99.90;;;;;;5045639;28;20037;-63
2022/01/26 06:06:22;;;;;;;88.80;32.72;;;2.80;99.90;;;;;;5036083;28;20080;-63
2022/01/26 06:08:47;;;;;;;90.13;33.35;;;2.70;99.90;;;;;;5044282;28;20073;-63
2022/01/26 06:11:13;;;;;;;80.93;30.70;;;2.70;99.90;;;;;;5045986;28;20033;-63
2022/01/26 06:13:39;;;;;;;81.28;29.58;;;2.70;99.90;;;;;;5028708;28;20143;-63
2022/01/26 06:16:05;;;;;;;76.70;30.88;;;2.70;99.90;;;;;;5044220;28;20060;-63
2022/01/26 06:18:31;;;;;;;84.15;32.53;;;2.70;99.90;;;;;;5046230;28;20053;-63
2022/01/26 06:20:57;;;;;;;70.20;26.38;;;2.70;99.90;;;;;;5043124;28;20045;-63
2022/01/26 06:23:26;;;;;;;74.88;29.17;;;2.70;99.90;;;;;;5016792;28;20053;-63
2022/01/26 06:25:57;;;;;;;79.00;29.65;;;2.70;99.90;;;;;;5045769;28;20049;-63
2022/01/26 06:28:27;;;;;;;84.40;34.05;;;2.70;99.90;;;;;;5023983;28;20099;-63
2022/01/26 06:30:59;;;;;;;65.70;27.08;;;2.70;99.90;;;;;;5045135;28;20143;-63
2022/01/26 06:33:26;;;;;;;78.20;30.30;;;2.70;99.90;;;;;;5044966;28;20064;-63
2022/01/26 06:35:52;;;;;;;68.15;25.08;;;2.70;99.90;;;;;;5046331;28;20044;-63
2022/01/26 06:38:18;;;;;;;78.15;28.75;;;2.70;99.90;;;;;;5017935;28;20422;-63
2022/01/26 06:40:44;;;;;;;71.43;29.50;;;2.70;99.90;;;;;;5027898;28;20290;-63
2022/01/26 06:43:13;;;;;;;81.35;30.23;;;2.70;99.90;;;;;;5029517;28;20049;-63
2022/01/26 06:45:59;;;;;;;68.30;27.03;;;2.70;99.90;;;;;;5049245;28;20064;-63
2022/01/26 06:49:02;;;;;;;58.97;23.38;;;2.70;99.90;;;;;;5043637;28;20464;-63
2022/01/26 06:51:12;;;;;;;77.63;29.05;;;2.70;99.90;;;;;;5048253;28;20045;-63
2022/01/26 06:53:38;;;;;;;84.63;31.33;;;2.70;99.90;;;;;;5049951;28;20094;-63
2022/01/26 06:56:04;;;;;;;78.53;30.67;;;2.70;99.90;;;;;;5031584;28;20449;-63
2022/01/26 06:58:30;;;;;;;73.20;26.42;;;2.70;99.90;;;;;;5028228;28;20045;-63
2022/01/26 07:00:57;;;;;;;76.95;30.85;;;2.70;99.90;;;;;;5049507;28;20087;-63
2022/01/26 07:03:24;;;;;;;79.97;27.90;;;2.70;99.90;;;;;;5048813;28;20041;-62
2022/01/26 07:05:50;;;;;;;77.65;31.70;;;2.70;99.90;;;;;;5049648;28;20617;-63
2022/01/26 07:08:15;;;;;;;78.75;32.28;;;2.70;99.90;;;;;;5048758;28;20083;-63
2022/01/26 07:10:42;;;;;;;81.30;30.05;;;2.70;99.90;;;;;;5046428;28;21010;-62
2022/01/26 07:13:08;;;;;;;60.75;23.45;;;2.70;99.90;;;;;;5049187;28;20045;-63
2022/01/26 07:23:44;;;;;;;81.65;32.63;;;2.70;99.90;;;;;;5049353;28;20061;-63
2022/01/26 07:26:10;;;;;;;83.15;32.83;;;2.70;99.90;;;;;;5048071;28;20063;-63
2022/01/26 07:28:38;;;;;;;79.30;31.80;;;2.70;99.90;;;;;;5014694;28;20045;-63
2022/01/26 07:31:04;;;;;;;72.90;29.55;;;2.70;99.90;;;;;;5039062;28;20398;-63
2022/01/26 07:33:31;;;;;;;82.32;32.05;;;2.70;99.90;;;;;;5045879;28;20045;-64
2022/01/26 07:35:57;;;;;;;84.07;33.00;;;2.70;99.90;;;;;;5044319;28;20433;-63
2022/01/26 07:38:22;;;;;;;76.63;30.60;;;2.70;99.90;;;;;;5030078;28;20124;-63
2022/01/26 07:40:48;;;;;;;65.43;22.42;;;2.70;99.90;;;;;;5048759;28;20425;-63
2022/01/26 07:43:14;;;;;;;74.65;29.13;;;2.70;99.90;;;;;;5048021;28;20072;-63
2022/01/26 07:45:41;;;;;;;86.07;31.40;;;2.70;99.90;;;;;;5030179;28;20099;-63
2022/01/26 07:48:08;;;;;;;81.82;31.20;;;2.70;99.90;;;;;;5048865;28;20123;-63
2022/01/26 07:50:34;;;;;;;87.28;32.03;;;2.70;99.90;;;;;;5047679;28;20609;-63
2022/01/26 07:53:01;;;;;;;83.32;31.35;;;2.70;99.90;;;;;;5041399;28;20049;-63
2022/01/26 07:55:27;;;;;;;82.82;30.50;;;2.70;99.90;;;;;;5044977;28;20402;-63
2022/01/26 07:57:56;;;;;;;75.70;28.85;;;2.70;99.90;;;;;;5040248;28;20037;-63
2022/01/26 08:00:23;;;;;;;82.93;31.38;;;2.70;99.90;;;;;;5039379;28;20042;-63
2022/01/26 08:02:49;;;;;;;74.72;29.48;;;2.70;99.90;;;;;;5048409;28;20083;-63
2022/01/26 08:05:16;;;;;;;74.82;28.23;;;2.70;99.90;;;;;;5025880;28;20044;-63
2022/01/26 08:07:42;;;;;;;85.05;32.95;;;2.80;99.90;;;;;;5046018;28;20059;-63
2022/01/26 08:10:10;;;;;;;80.90;32.15;;;2.70;99.90;;;;;;5029102;28;20548;-63
2022/01/26 08:12:37;;;;;;;80.35;30.08;;;2.70;99.90;;;;;;5041422;28;20041;-63
2022/01/26 08:15:04;;;;;;;90.75;34.13;;;2.80;99.90;;;;;;5039431;28;20456;-63
2022/01/26 08:17:30;;;;;;;82.22;30.80;;;2.80;99.90;;;;;;5023672;28;20049;-63
2022/01/26 08:19:56;;;;;;;88.72;32.13;;;2.80;99.90;;;;;;5032933;28;20045;-63
2022/01/26 08:22:25;;;;;;;80.53;29.13;;;2.80;99.90;;;;;;5018493;28;20095;-63
2022/01/26 08:24:51;;;;;;;87.32;32.70;;;2.80;99.90;;;;;;5041132;28;20045;-63
2022/01/26 08:27:19;;;;;;;84.72;31.63;;;2.80;99.90;;;;;;5044619;28;20044;-63
2022/01/26 08:29:49;;;;;;;84.05;32.22;;;2.80;99.90;;;;;;5041205;28;20045;-63
2022/01/26 08:32:16;;;;;;;90.22;32.15;;;2.80;99.90;;;;;;5042923;28;20052;-62
2022/01/26 08:34:41;;;;;;;80.00;31.83;;;2.90;99.90;;;;;;5025856;28;20072;-63
2022/01/26 08:37:08;;;;;;;90.88;35.75;;;2.90;99.90;;;;;;5045599;28;20483;-63
2022/01/26 08:39:35;;;;;;;90.57;36.10;;;2.80;99.90;;;;;;5012099;28;20095;-63
2022/01/26 08:42:05;;;;;;;91.70;33.55;;;2.90;99.90;;;;;;5038993;28;20057;-63
2022/01/26 08:44:31;;;;;;;91.45;34.50;;;2.90;99.90;;;;;;5030260;28;20395;-63
2022/01/26 08:46:58;;;;;;;85.65;34.28;;;2.90;99.90;;;;;;5027371;28;20040;-63
2022/01/26 08:49:27;;;;;;;83.35;33.50;;;2.90;99.90;;;;;;5012243;28;20045;-63
2022/01/26 08:51:54;;;;;;;82.78;32.83;;;2.90;99.90;;;;;;5037942;28;20092;-63
2022/01/26 08:54:22;;;;;;;87.95;35.15;;;2.90;99.90;;;;;;5030753;28;20384;-62
2022/01/26 08:56:51;;;;;;;96.53;37.33;;;3.00;99.90;;;;;;5044712;28;20048;-63
2022/01/26 08:59:22;;;;;;;98.40;37.42;;;3.00;99.90;;;;;;5021929;28;20653;-63
2022/01/26 09:01:49;;;;;;;87.07;35.60;;;3.00;99.90;;;;;;5027213;28;20586;-63
2022/01/26 09:04:15;;;;;;;88.47;35.22;;;3.00;99.90;;;;;;5037304;28;20045;-63
2022/01/26 09:09:45;;;;;;;94.55;37.47;;;3.00;99.90;;;;;;5002542;28;20083;-63
2022/01/26 09:12:14;;;;;;;98.10;36.17;;;3.10;99.90;;;;;;5045317;28;20102;-63
2022/01/26 09:14:41;;;;;;;88.00;36.80;;;3.10;99.90;;;;;;5041325;28;20387;-63
2022/01/26 09:17:08;;;;;;;88.95;34.88;;;3.10;99.90;;;;;;5043153;28;20115;-63
2022/01/26 09:19:35;;;;;;;92.65;36.65;;;3.10;99.90;;;;;;5040307;28;20530;-63
2022/01/26 09:22:09;;;;;;;98.18;37.03;;;3.10;99.90;;;;;;5041156;28;20085;-63
2022/01/26 09:24:37;;;;;;;102.30;38.78;;;3.10;99.90;;;;;;5011261;28;20225;-63
2022/01/26 09:27:04;;;;;;;97.63;38.13;;;3.10;99.90;;;;;;5029547;28;20033;-63
2022/01/26 09:29:31;;;;;;;106.57;39.92;;;3.10;99.90;;;;;;5000029;28;20048;-63
2022/01/26 09:31:57;;;;;;;95.82;37.90;;;3.10;99.90;;;;;;5028924;28;20045;-63
2022/01/26 09:34:29;;;;;;;92.13;36.80;;;3.20;99.90;;;;;;5043183;28;20048;-63
2022/01/26 09:36:55;;;;;;;103.55;40.65;;;3.20;99.90;;;;;;5026902;28;20530;-63
2022/01/26 09:39:21;;;;;;;93.82;37.53;;;3.20;99.90;;;;;;5042352;28;20079;-63
2022/01/26 09:41:49;;;;;;;99.25;38.42;;;3.20;99.90;;;;;;5044031;28;20041;-63
2022/01/26 09:44:18;;;;;;;84.85;31.20;;;3.30;99.90;;;;;;5043918;28;20045;-63
2022/01/26 09:46:45;;;;;;;103.50;41.30;;;3.30;99.90;;;;;;5041318;28;20203;-62
2022/01/26 09:49:14;;;;;;;106.85;40.08;;;3.30;99.90;;;;;;5044402;28;20495;-63
2022/01/26 09:51:44;;;;;;;98.57;40.75;;;3.30;99.90;;;;;;5015935;28;20049;-63
2022/01/26 09:54:16;;;;;;;96.63;37.47;;;3.30;99.90;;;;;;5028736;28;20037;-63
2022/01/26 09:56:49;;;;;;;96.07;38.28;;;3.30;99.90;;;;;;5028393;28;20478;-63
2022/01/26 09:59:16;;;;;;;89.05;37.30;;;3.40;99.90;;;;;;5037089;28;20053;-63
2022/01/26 10:01:51;;;;;;;102.30;36.55;;;3.40;99.90;;;;;;5032151;28;20045;-63
2022/01/26 10:04:27;;;;;;;99.20;37.25;;;3.40;99.90;;;;;;5036526;28;20036;-63
2022/01/26 10:07:19;;;;;;;108.20;42.38;;;3.40;99.90;;;;;;5030243;28;20048;-62
2022/01/26 10:15:56;;;;;;;93.68;38.58;;;3.50;99.90;;;;;;5043739;28;20123;-63
2022/01/26 10:18:15;;;;;;;88.88;37.80;;;3.50;99.90;;;;;;5001411;28;20054;-63
2022/01/26 10:20:49;;;;;;;96.15;39.53;;;3.50;99.90;;;;;;4986545;28;20113;-63
2022/01/26 10:23:20;;;;;;;86.18;36.83;;;3.60;99.90;;;;;;5002180;28;20088;-63
2022/01/26 10:26:03;;;;;;;103.43;41.00;;;3.60;99.90;;;;;;5003082;28;20108;-63
2022/01/26 10:28:57;;;;;;;91.97;36.78;;;3.60;99.90;;;;;;5002807;28;20156;-63
2022/01/26 10:31:27;;;;;;;103.80;42.45;;;3.60;99.90;;;;;;5003510;28;20054;-63
2022/01/26 10:34:13;;;;;;;96.70;38.85;;;3.70;99.90;;;;;;5004912;28;20050;-63
2022/01/26 10:36:44;;;;;;;95.18;40.58;;;3.70;99.90;;;;;;5003658;28;20372;-63
2022/01/26 10:39:23;;;;;;;97.28;38.53;;;3.70;99.90;;;;;;5000095;28;20455;-63
2022/01/26 10:41:52;;;;;;;79.97;31.65;;;3.80;99.90;;;;;;5003000;28;20046;-63
2022/01/26 10:44:28;;;;;;;106.32;40.40;;;3.80;99.90;;;;;;5002760;28;20124;-63
2022/01/26 10:46:59;;;;;;;100.47;37.65;;;3.80;99.90;;;;;;5002817;28;20077;-63
2022/01/26 10:52:19;;;;;;;81.28;33.85;;;3.80;99.90;;;;;;4995695;28;20488;-63
2022/01/26 10:54:48;;;;;;;89.63;36.53;;;3.90;99.90;;;;;;5003937;28;20395;-63
2022/01/26 10:57:14;;;;;;;96.80;39.83;;;3.90;99.90;;;;;;4997081;28;20050;-63
2022/01/26 10:59:43;;;;;;;69.60;27.52;;;3.90;99.90;;;;;;5017808;28;20069;-63
2022/01/26 11:02:11;;;;;;;111.60;42.78;;;3.90;99.90;;;;;;5004216;28;20473;-63
2022/01/26 11:04:40;;;;;;;77.82;30.50;;;3.90;99.90;;;;;;5004986;28;20488;-63
2022/01/26 11:07:11;;;;;;;114.13;43.00;;;3.90;99.90;;;;;;5003706;28;20389;-63
2022/01/26 11:09:38;;;;;;;86.25;35.88;;;4.00;99.90;;;;;;5003229;28;20042;-63
2022/01/26 11:12:07;;;;;;;100.40;40.00;;;4.00;99.90;;;;;;4999583;28;20372;-63
2022/01/26 11:14:38;;;;;;;89.57;39.17;;;4.00;99.90;;;;;;5000149;28;20050;-63
2022/01/26 11:17:04;;;;;;;97.55;39.20;;;3.90;99.90;;;;;;5027475;28;20057;-63
2022/01/26 11:19:40;;;;;;;100.30;38.92;;;3.90;99.90;;;;;;5031035;28;20059;-63
2022/01/26 11:22:07;;;;;;;99.55;39.63;;;4.00;99.90;;;;;;5025784;28;20166;-63
2022/01/26 11:24:48;;;;;;;92.68;35.58;;;4.00;99.90;;;;;;5043517;28;20037;-63
2022/01/26 11:27:16;;;;;;;90.40;36.60;;;4.00;99.90;;;;;;5032325;28;20128;-63
2022/01/26 11:29:46;;;;;;;92.13;37.13;;;4.00;99.90;;;;;;5037795;28;20510;-63
2022/01/26 11:32:23;;;;;;;89.50;38.33;;;4.10;99.90;;;;;;5015464;28;20088;-63
2022/01/26 11:34:52;;;;;;;91.47;34.70;;;4.10;99.90;;;;;;5033835;28;20049;-63
2022/01/26 11:37:42;;;;;;;88.40;34.40;;;4.20;99.90;;;;;;5038594;28;20047;-63
2022/01/26 11:45:39;;;;;;;81.50;30.42;;;4.30;99.90;;;;;;5045422;28;20376;-63
2022/01/26 11:48:22;;;;;;;76.20;31.20;;;4.20;99.90;;;;;;5042612;28;20037;-63
2022/01/26 11:51:01;;;;;;;78.72;32.10;;;4.30;99.90;;;;;;5047570;28;20479;-63
2022/01/26 11:53:28;;;;;;;71.50;27.75;;;4.30;99.90;;;;;;5045293;28;20399;-63
2022/01/26 11:56:07;;;;;;;82.50;32.72;;;4.30;99.90;;;;;;5046111;28;20045;-63
2022/01/26 11:58:39;;;;;;;79.95;30.17;;;4.40;99.90;;;;;;5031981;28;20040;-63
2022/01/26 12:01:33;;;;;;;71.15;29.65;;;4.40;99.90;;;;;;5045158;28;20127;-63
2022/01/26 12:04:16;;;;;;;64.93;26.73;;;4.40;99.90;;;;;;5045177;28;20421;-63
2022/01/26 12:06:48;;;;;;;84.38;31.33;;;4.40;99.90;;;;;;5045199;28;20133;-63
2022/01/26 12:09:17;;;;;;;52.70;16.77;;;4.40;99.90;;;;;;5045412;28;20822;-63
2022/01/26 12:11:50;;;;;;;84.40;32.22;;;4.40;99.90;;;;;;5047376;28;20037;-63
2022/01/26 12:14:20;;;;;;;87.05;34.20;;;4.40;99.90;;;;;;5043816;28;20045;-63
2022/01/26 12:16:49;;;;;;;65.93;25.90;;;4.40;99.90;;;;;;5039188;28;20462;-63
2022/01/26 12:19:35;;;;;;;77.30;30.80;;;4.50;99.90;;;;;;5039588;28;20064;-63
2022/01/26 12:33:59;;;;;;;56.45;21.90;;;4.60;99.90;;;;;;5026532;28;20117;-63
2022/01/26 12:39:17;;;;;;;75.10;30.95;;;4.60;99.90;;;;;;5043155;28;20052;-63
2022/01/26 12:41:52;;;;;;;69.15;25.13;;;4.60;99.90;;;;;;5027434;28;20123;-63
2022/01/26 12:44:19;;;;;;;59.72;21.67;;;4.60;99.90;;;;;;5043507;28;20445;-63
2022/01/26 12:46:45;;;;;;;71.18;29.15;;;4.60;99.90;;;;;;5046403;28;20098;-63
2022/01/26 12:49:19;;;;;;;75.38;30.95;;;4.60;99.90;;;;;;5044529;28;20051;-63
2022/01/26 12:51:51;;;;;;;75.57;28.30;;;4.60;99.90;;;;;;5046921;28;20048;-63
2022/01/26 12:54:17;;;;;;;69.85;28.63;;;4.60;99.90;;;;;;5035883;28;20253;-63
2022/01/26 12:56:44;;;;;;;61.22;24.10;;;4.70;99.90;;;;;;5041620;28;20462;-63
2022/01/26 12:59:13;;;;;;;82.43;27.70;;;4.60;99.90;;;;;;5041513;28;20386;-63
2022/01/26 13:01:40;;;;;;;59.42;23.80;;;4.60;99.90;;;;;;5044005;28;20048;-63
2022/01/26 13:04:08;;;;;;;69.88;26.67;;;4.60;99.90;;;;;;5045718;28;20095;-63
2022/01/26 13:06:39;;;;;;;67.85;27.08;;;4.60;99.90;;;;;;5024537;28;20045;-63
2022/01/26 13:09:16;;;;;;;77.72;33.60;;;4.60;99.90;;;;;;5045627;28;20063;-63
2022/01/26 13:11:44;;;;;;;86.60;32.55;;;4.70;99.90;;;;;;5027370;28;20037;-63
2022/01/26 13:14:23;;;;;;;76.20;27.75;;;4.70;99.90;;;;;;5023959;28;20478;-63
2022/01/26 13:19:44;;;;;;;83.07;28.33;;;4.60;99.90;;;;;;5044990;28;20438;-63
2022/01/26 13:27:37;;;;;;;82.55;32.05;;;4.60;99.90;;;;;;5034287;28;20386;-63
2022/01/26 13:38:27;;;;;;;64.47;25.67;;;4.60;99.90;;;;;;5044546;28;20041;-63
2022/01/26 13:49:32;;;;;;;77.20;29.10;;;4.70;99.90;;;;;;5015063;28;20145;-63
2022/01/26 13:52:04;;;;;;;70.18;25.25;;;4.70;99.90;;;;;;5037958;28;20047;-63
2022/01/26 13:57:47;;;;;;;68.10;26.95;;;4.80;99.90;;;;;;5033368;28;20049;-63
2022/01/26 13:59:48;;;;;;;62.67;24.55;;;4.80;99.90;;;;;;5024670;28;20531;-63
2022/01/26 14:02:14;;;;;;;78.88;32.63;;;4.70;99.90;;;;;;5031097;28;20045;-63
2022/01/26 14:04:40;;;;;;;60.55;24.67;;;4.80;99.90;;;;;;5036476;28;20400;-63
2022/01/26 14:07:06;;;;;;;60.17;25.00;;;4.80;99.90;;;;;;5030050;28;20045;-63
2022/01/26 14:09:32;;;;;;;34.45;12.57;;;4.80;99.90;;;;;;5033474;28;20048;-63
2022/01/26 14:12:00;;;;;;;66.88;28.92;;;4.80;99.90;;;;;;5045420;28;20597;-63
2022/01/26 14:14:32;;;;;;;59.63;25.42;;;4.80;99.90;;;;;;5039212;28;20108;-63
2022/01/26 14:17:01;;;;;;;67.20;27.90;;;4.90;99.90;;;;;;5021456;28;20053;-63
2022/01/26 14:19:49;;;;;;;64.47;24.60;;;4.80;99.90;;;;;;5021194;28;20483;-63
2022/01/26 14:27:47;;;;;;;68.20;29.55;;;4.90;99.90;;;;;;5014036;28;20057;-63
2022/01/26 14:30:24;;;;;;;61.67;25.88;;;4.90;99.90;;;;;;5024327;28;20496;-63
2022/01/26 14:40:51;;;;;;;66.03;25.48;;;4.90;99.90;;;;;;5013360;28;20057;-63
2022/01/26 14:54:45;;;;;;;73.25;27.52;;;5.00;99.90;;;;;;5023869;28;20064;-63
2022/01/26 15:34:59;;;;;;;58.90;23.05;;;5.10;99.90;;;;;;5046414;28;20049;-63
2022/01/26 15:40:26;;;;;;;56.58;25.73;;;5.10;99.90;;;;;;5044151;28;20044;-63
2022/01/26 17:26:22;;;;;;;56.30;22.52;;;5.30;99.90;;;;;;5032169;28;20057;-63
2022/01/26 18:17:30;;;;;;;50.42;20.73;;;5.40;99.90;;;;;;5045053;28;20041;-63
2022/01/26 18:49:11;;;;;;;58.15;23.25;;;5.40;99.90;;;;;;5037190;28;20142;-64
2022/01/26 18:49:39;;;;;;;50.88;21.63;;;5.40;99.90;;;;;;5048115;28;20509;-64
2022/01/26 18:52:07;;;;;;;59.90;24.23;;;5.40;99.90;;;;;;5050148;28;20048;-64
2022/01/26 18:54:38;;;;;;;50.60;22.52;;;5.40;99.90;;;;;;5048982;28;20049;-64
2022/01/26 18:57:07;;;;;;;37.28;17.73;;;5.40;99.90;;;;;;5048710;28;20056;-64
2022/01/26 18:59:34;;;;;;;57.83;22.43;;;5.40;99.90;;;;;;5050220;28;20036;-64
2022/01/26 19:02:00;;;;;;;58.22;24.65;;;5.40;99.90;;;;;;5047529;28;20037;-64
2022/01/26 19:04:36;;;;;;;55.22;23.48;;;5.40;99.90;;;;;;5040238;28;20072;-64
2022/01/26 19:07:03;;;;;;;60.05;23.23;;;5.40;99.90;;;;;;5049018;28;20044;-64
2022/01/26 19:09:33;;;;;;;52.47;23.08;;;5.40;99.90;;;;;;5044166;28;20080;-64
2022/01/26 19:12:01;;;;;;;52.28;22.98;;;5.50;99.90;;;;;;5047183;28;20041;-64
2022/01/26 19:14:33;;;;;;;48.58;21.45;;;5.50;99.90;;;;;;5045976;28;20059;-64
2022/01/26 19:17:24;;;;;;;46.80;21.38;;;5.50;99.90;;;;;;5004867;28;20052;-64
2022/01/26 19:54:15;;;;;;;19.33;10.05;;;5.80;99.90;;;;;;5027557;28;20053;-64
2022/01/26 19:56:41;;;;;;;25.17;12.27;;;5.80;99.90;;;;;;5023851;28;20044;-64
2022/01/26 19:59:07;;;;;;;26.50;11.52;;;5.90;99.90;;;;;;5046541;28;20037;-64
2022/01/26 20:01:32;;;;;;;35.33;16.50;;;5.90;99.90;;;;;;5025854;28;20048;-64
2022/01/26 20:03:58;;;;;;;11.88;5.20;;;5.90;99.90;;;;;;5045808;28;20069;-64
2022/01/26 20:06:24;;;;;;;39.10;16.42;;;6.00;99.90;;;;;;5046140;28;20486;-64
2022/01/26 20:08:57;;;;;;;37.30;16.40;;;6.00;99.90;;;;;;5025643;28;20041;-64